| time (UTC) | temp C | wind direction | speed KPH | gust KPH | rain 1hr cm | rain 24hr cm | rain mn cm | humidity % | barometer mb |
| 20260504081514 | 7 | 130 | 0.0 | 0.0 | 0.00 | 0.00 | 0.00 | 63 | 1015.5 |
| 20260504044557 | 8 | 307 | 0.0 | 0.0 | 0.00 | 0.00 | 0.00 | 56 | 1015.2 |
| 20260504043101 | 8 | 307 | 0.0 | 0.0 | 0.00 | 0.00 | 0.00 | 55 | 1015.1 |
| 20260504041555 | 8 | 307 | 0.0 | 0.0 | 0.00 | 0.00 | 0.00 | 55 | 1015.0 |
| 20260504040052 | 8 | 307 | 0.0 | 0.0 | 0.00 | 0.00 | 0.00 | 54 | 1014.8 |
| 20260504034550 | 9 | 307 | 0.0 | 0.0 | 0.00 | 0.00 | 0.00 | 53 | 1014.8 |
| 20260504033054 | 9 | 307 | 0.0 | 0.0 | 0.00 | 0.00 | 0.00 | 53 | 1014.7 |
| 20260504031559 | 10 | 307 | 0.0 | 0.0 | 0.00 | 0.00 | 0.00 | 52 | 1014.7 |
| 20260504030051 | 10 | 307 | 0.0 | 0.0 | 0.00 | 0.00 | 0.00 | 51 | 1014.7 |
| 20260504024557 | 10 | 311 | 0.0 | 1.6 | 0.00 | 0.00 | 0.00 | 51 | 1014.7 |
| 20260504023048 | 10 | 313 | 0.0 | 0.0 | 0.00 | 0.00 | 0.00 | 50 | 1014.8 |
| 20260504021552 | 10 | 313 | 0.0 | 0.0 | 0.00 | 0.00 | 0.00 | 49 | 1014.7 |
| 20260504020050 | 11 | 313 | 0.0 | 0.0 | 0.00 | 0.00 | 0.00 | 48 | 1014.6 |
| 20260504014547 | 11 | 313 | 0.0 | 0.0 | 0.00 | 0.00 | 0.00 | 47 | 1014.6 |
| 20260504013056 | 11 | 313 | 0.0 | 0.0 | 0.00 | 0.00 | 0.00 | 46 | 1014.4 |
| 20260504011546 | 11 | 313 | 0.0 | 0.0 | 0.00 | 0.00 | 0.00 | 45 | 1014.3 |
| 20260504010046 | 12 | 313 | 0.0 | 0.0 | 0.00 | 0.00 | 0.00 | 44 | 1014.1 |
| 20260504004559 | 12 | 290 | 0.0 | 1.6 | 0.00 | 0.00 | 0.00 | 43 | 1013.9 |
| 20260504003045 | 13 | 290 | 0.0 | 1.6 | 0.00 | 0.00 | 0.00 | 42 | 1013.7 |
| 20260504001547 | 13 | 312 | 0.0 | 1.6 | 0.00 | 0.00 | 0.00 | 41 | 1013.6 |
| 20260504000044 | 13 | 311 | 0.0 | 3.2 | 0.00 | 0.00 | 0.00 | 40 | 1013.5 |
| 20260503234543 | 14 | 323 | 0.0 | 6.4 | 0.00 | 0.00 | 0.00 | 39 | 1013.3 |
| 20260503233044 | 14 | 312 | 1.6 | 6.4 | 0.00 | 0.00 | 0.00 | 38 | 1013.2 |
| 20260503231550 | 14 | 304 | 1.6 | 11.3 | 0.00 | 0.00 | 0.00 | 37 | 1013.1 |
| 20260503230050 | 14 | 291 | 1.6 | 9.7 | 0.00 | 0.00 | 0.00 | 36 | 1013.0 |
| 20260503224542 | 15 | 360 | 6.4 | 17.7 | 0.00 | 0.00 | 0.00 | 36 | 1013.0 |
| 20260503223041 | 15 | 42 | 0.0 | 16.1 | 0.00 | 0.00 | 0.00 | 37 | 1013.0 |
| 20260503221540 | 15 | 330 | 4.8 | 19.3 | 0.00 | 0.00 | 0.00 | 35 | 1013.0 |
| 20260503220041 | 15 | 290 | 4.8 | 20.9 | 0.00 | 0.00 | 0.00 | 36 | 1013.0 |
| 20260503214538 | 15 | 305 | 1.6 | 11.3 | 0.00 | 0.00 | 0.00 | 36 | 1012.8 |
| 20260503213037 | 14 | 302 | 8.0 | 16.1 | 0.00 | 0.00 | 0.00 | 37 | 1012.9 |
| 20260503211540 | 14 | 281 | 4.8 | 16.1 | 0.00 | 0.00 | 0.00 | 37 | 1012.8 |
| 20260503210034 | 14 | 330 | 3.2 | 16.1 | 0.00 | 0.00 | 0.00 | 38 | 1012.8 |
| 20260503204533 | 13 | 280 | 3.2 | 16.1 | 0.00 | 0.00 | 0.00 | 38 | 1012.9 |
| 20260503203031 | 13 | 284 | 4.8 | 20.9 | 0.00 | 0.00 | 0.00 | 38 | 1013.1 |
| 20260503201530 | 13 | 247 | 3.2 | 20.9 | 0.00 | 0.00 | 0.00 | 38 | 1013.1 |
| 20260503200031 | 13 | 272 | 8.0 | 20.9 | 0.00 | 0.00 | 0.00 | 38 | 1013.2 |
| 20260503194530 | 13 | 334 | 6.4 | 20.9 | 0.00 | 0.00 | 0.00 | 39 | 1013.2 |
| 20260503193036 | 13 | 284 | 8.0 | 19.3 | 0.00 | 0.00 | 0.00 | 39 | 1013.3 |
| 20260503191526 | 13 | 351 | 0.0 | 16.1 | 0.00 | 0.00 | 0.00 | 40 | 1013.5 |
| 20260503190031 | 12 | 309 | 8.0 | 17.7 | 0.00 | 0.00 | 0.00 | 40 | 1013.6 |
| 20260503184522 | 12 | 360 | 4.8 | 25.7 | 0.00 | 0.00 | 0.00 | 40 | 1013.6 |
| 20260503183018 | 12 | 302 | 1.6 | 19.3 | 0.00 | 0.00 | 0.00 | 40 | 1013.9 |
| 20260503181515 | 12 | 288 | 4.8 | 19.3 | 0.00 | 0.00 | 0.00 | 39 | 1014.1 |
| 20260503180012 | 12 | 319 | 3.2 | 14.5 | 0.00 | 0.00 | 0.00 | 41 | 1014.1 |
| 20260503174509 | 12 | 302 | 1.6 | 19.3 | 0.00 | 0.00 | 0.00 | 41 | 1014.2 |
| 20260503173017 | 12 | 265 | 6.4 | 20.9 | 0.00 | 0.00 | 0.00 | 41 | 1014.3 |
| 20260503171508 | 12 | 300 | 6.4 | 17.7 | 0.00 | 0.00 | 0.00 | 42 | 1014.4 |